Terminal Aerodrome Forecast
Issued by NWS Green Bay, WI

Home | Current Version | Previous Version | Text Only | Print | Product List | Glossary Off
Versions: 1 2 3 4 5 6 7 8 9 10 11 12 13 14 15 16 17 18 19 20 21 22 23 24 25 26 27 28 29 30 31 32

359
FTUS43 KGRB 232337
TAFGRB
TAF
KGRB 232337Z 2400/2424 15013G20KT P6SM VCSH OVC040 WS013/19040KT
      TEMPO 2402/2404 4SM TSRA BR OVC025CB
     FM240500 18006KT 4SM RA BR OVC020 WS018/23040KT
     FM240900 20004KT 3SM -RA BR OVC014
     FM241300 VRB03KT 2SM -RA BR OVC007
     FM241600 03010KT 1 1/2SM RA BR OVC003=

USA.gov is the U.S. government's official web portal to all federal, state and local government web resources and services.